Timeline UpdatesTrip UpdatesNews PostsPvt PostsTravel TipsAdmin PostsConv PostsFollowed PostsChat RequestsBlog PostsPNR Posts

Disclaimer
Search
 
 
Fri Aug 22, 2014 23:11:56 ISTHomeTrainsΣChainsAtlasPNRForumGalleryNewsFAQTripsMembersLoginFeedback
No Recent News for this Train
Other Trains in the News **new
Latest...
Will remain cancelled between Bhiwani and Bhatinda on 28/01/2013 due to work of Road Under Bridge(RUB), only run between Rewari and Bhiwani. ********************************************* Cancelled on 26th March.
Sun Jan 27, 2013 (08:04PM)
⇐ Return Journey: Train# 54781

54782/Rewari Bhatinda Passenger (UnReserved)

Sep 27 2013 (10:29AM)
Change Departure Station:
Change Arrival Station:
Post a Train Travel TipPost a Train Travel Tip **new
Post a Comment/Question/Picture/VideoPost a Comment/Question/Picture/Video
Pantry/Catering
???
RSA - Rake Sharing
Rake/Coach Composition
Loco
News    PNR    Forum    Time-Table    Availability    Fare Chart    Map    Arr/Dep History    Trips    Gallery    ΣChains    X/O    Timeline    
Travel Time: 1h 30m    5 halts    Distance: 34 km    Avg Speed: 22 km/hr
Type: Passenger
Zone: NWR/North Western
Departs @ 15:25 (Avg 23m late)
Platform# ???
SMTWTFS
Ratangarh Kanakwal/RKK 
Arrives @ 16:55 (Avg 10m late)
Platform# ???
SMTWTFS
Bathinda Junction/BTI 

5 halts. 5 intermediate Stations between Ratangarh Kanakwal and Bathinda Junction

Show ALL intermediate Stations  Show Old Time-Table

#CodeStation NameX/OArrivesAvgDepartsAvgHaltPFDay#KmSpeedElevZoneAddress
1RERewari Junction (8)  -09:10+5--1-266.442245mNWRRewari, Haryana
2KGBSKishangarh Balawas (1)  09:22+1409:23+151m11-258.061240mNWRKishengarh, Haryana
3JTSJatusana (1)  09:32+1709:33+171m11-248.943243mNWRNanagal Pathani Rd, Haryana
4NLQNangal Pathani Halt (1)  09:39-09:40-1m11-244.660231mNWRNangal Pathani, Haryana
5KSIKosli (1)  09:46+1809:48+182m11-238.543236mNWRTumna Rd, Haryana
6SDRASudharana (1)  09:56+2009:57+211m11-232.860230mNWRSudharana, Haryana
7JRLJharili (1)  10:05+2310:07+232m11-224.746234mNWRJhajjar, Haryana
8PUWPatuwas Mehrana (1)X  10:16-10:17-1m11-217.863226mNWRMehrana, Haryana
9CKDCharkhi Dadri (1)  10:24+2210:26+242m11-210.444217mNWRDist. Bhiwani, Haryana
10FGHFatehgarh Haryana (1)  10:35-10:36-1m11-203.857217mNWRFatehgarh, Haryana
11MHUManheru (1)  10:43+2410:45+252m11-197.252216mNWRBhiwani, Haryana
12DZLDhana Ladanpur (1)  10:54-10:55-1m11-189.423219mNWRDhana Ladanpur, Haryana
13BNWBhiwani Junction (3)X  11:10+1711:15+215m--1-183.595216mNWRBhiwani, Haryana
14SUISui  11:23-11:24-1m--1-170.839216mNWRBhiwani, Haryana
15BWKBawani Khera  11:32+2811:34+282m--1-165.660215mNWRBawani Khera, Haryana
16JKZJitakheri  11:43+2911:45+282m--1-156.642217mNWRBhiwani, Haryana
17AUNAurang Nagar  11:51-11:52-1m--1-152.449216mNWRAurang Nagar, Haryana
18HNSHansi (1)  11:59+3012:01+302m11-146.651217mNWRHissar, Haryana
19MAYRMayar  12:11-12:12-1m--1-138.250216mNWRMayar, Haryana
20STDSatrod  12:17+2912:19+282m--1-134.039215mNWRHisar, Haryana
21HSRHisar Junction (6)  12:35+2112:40+245m--1-123.566215mNWRHisar, Haryana
22NKNNyoli Kalan  12:49-12:50-1m--1-113.753213mNWRNyoli Kalan, Haryana
23JKHIJakhod KheraX  12:57+3012:58+311m--1-107.570211mNWRJakhodlkhera, Haryana
24ADRMandi Adampur  13:09+3313:11+332m--1-94.859210mNWRHisar, Haryana
25KBKNKhabra Kalan  13:22-13:23-1m--1-84.065216mNWRKhabra Kalan, Haryana
26BHTBhattu  13:29+3413:31+342m--1-77.531212mNWRBhattu Kalan, Haryana
27MHULMehuwala Halt  13:38-13:39-1m--1-73.967210mNWRMehuwala Halt, Haryana
28DINGDing  13:46+3413:48+332m--1-66.140206mNWRSirsa, Haryana
29JOKJodhka  13:56-13:57-1m--1-60.843205mNWRSirsa, Haryana
30SHNSuchan Kotli  14:03+3014:04+311m--1-56.575205mNWRSuchan, Haryana
31BJKNBajekan  14:12-14:14-2m--1-46.413203mNWRBajekan, Haryana
32SSASirsaX  14:35+1714:40+185m--1-41.884203mNWRSirsa, Haryana
33BGDBara Gudah  14:53+2014:55+252m--1-23.553204mNWRBara Gudha, Haryana
34SCVSukhchain  15:04-15:05-1m--1-15.655206mNWRSukhchain, Haryana
35KNLKalanwali  15:13+2515:15+242m--1-8.261206mNWRKalanwali, Haryana
36RKK»Ratangarh Kanakwal»  15:23+2315:25+232m--10.044205mNWRRatangarh Kanakwal, Punjab
37RMNRaman  15:33+2415:35+242m--15.939204mNWRRama Mandi, Punjab
38BNLSBangi Nihalsingh  15:43-15:44-1m--111.143207mNWRBangi Nihalsingh, Punjab
39MKBHManwala Kot Bak  15:49-15:50-1m--114.637208mNWRManwala Kot Bak, Punjab
40SGAShergarh  15:55+2215:56+221m--117.717205mNWRBathinda, Punjab
41GHBGahri Bhagi  16:03-16:04-1m--119.717205mNWRGahri Bhagi, Punjab
42BTI•Bathinda Junction (6)•  16:55+10---133.7-208mNRBathinda, Punjab
Scroll to Top
Scroll to Bottom